sensor_id;sensor_type;location;lat;lon;timestamp;P1;durP1;ratioP1;P2;durP2;ratioP2
47778;SDS011;33538;48.432;11.350;2023-04-24T00:01:49;1.00;;;0.90;;
47778;SDS011;33538;48.432;11.350;2023-04-24T00:04:16;1.50;;;0.75;;
47778;SDS011;33538;48.432;11.350;2023-04-24T00:06:43;3.00;;;0.77;;
47778;SDS011;33538;48.432;11.350;2023-04-24T00:09:10;1.95;;;0.95;;
47778;SDS011;33538;48.432;11.350;2023-04-24T00:11:37;1.15;;;0.90;;
47778;SDS011;33538;48.432;11.350;2023-04-24T00:14:04;1.25;;;0.85;;
47778;SDS011;33538;48.432;11.350;2023-04-24T00:16:30;1.52;;;0.82;;
47778;SDS011;33538;48.432;11.350;2023-04-24T00:18:58;5.78;;;0.80;;
47778;SDS011;33538;48.432;11.350;2023-04-24T00:21:25;0.73;;;0.70;;
47778;SDS011;33538;48.432;11.350;2023-04-24T00:23:52;0.80;;;0.70;;
47778;SDS011;33538;48.432;11.350;2023-04-24T00:26:19;2.55;;;0.90;;
47778;SDS011;33538;48.432;11.350;2023-04-24T00:28:46;2.58;;;0.90;;
47778;SDS011;33538;48.432;11.350;2023-04-24T00:31:12;2.05;;;1.00;;
47778;SDS011;33538;48.432;11.350;2023-04-24T00:33:39;1.20;;;0.90;;
47778;SDS011;33538;48.432;11.350;2023-04-24T00:36:07;0.95;;;0.80;;
47778;SDS011;33538;48.432;11.350;2023-04-24T00:38:34;0.80;;;0.80;;
47778;SDS011;33538;48.432;11.350;2023-04-24T00:41:01;0.77;;;0.70;;
47778;SDS011;33538;48.432;11.350;2023-04-24T00:43:27;1.13;;;0.88;;
47778;SDS011;33538;48.432;11.350;2023-04-24T00:45:54;1.08;;;0.82;;
47778;SDS011;33538;48.432;11.350;2023-04-24T00:48:21;0.88;;;0.82;;
47778;SDS011;33538;48.432;11.350;2023-04-24T00:50:49;0.70;;;0.70;;
47778;SDS011;33538;48.432;11.350;2023-04-24T00:53:18;1.05;;;0.70;;
47778;SDS011;33538;48.432;11.350;2023-04-24T00:55:44;0.73;;;0.70;;
47778;SDS011;33538;48.432;11.350;2023-04-24T00:58:12;0.85;;;0.70;;
47778;SDS011;33538;48.432;11.350;2023-04-24T01:00:39;1.35;;;0.80;;
47778;SDS011;33538;48.432;11.350;2023-04-24T01:03:06;1.20;;;0.80;;
47778;SDS011;33538;48.432;11.350;2023-04-24T01:05:33;6.13;;;0.60;;
47778;SDS011;33538;48.432;11.350;2023-04-24T01:08:00;0.55;;;0.55;;
47778;SDS011;33538;48.432;11.350;2023-04-24T01:10:30;0.82;;;0.65;;
47778;SDS011;33538;48.432;11.350;2023-04-24T01:12:58;0.77;;;0.60;;
47778;SDS011;33538;48.432;11.350;2023-04-24T01:15:25;0.95;;;0.65;;
47778;SDS011;33538;48.432;11.350;2023-04-24T01:17:52;1.15;;;0.77;;
47778;SDS011;33538;48.432;11.350;2023-04-24T01:20:19;1.15;;;0.80;;
47778;SDS011;33538;48.432;11.350;2023-04-24T01:22:48;0.98;;;0.65;;
47778;SDS011;33538;48.432;11.350;2023-04-24T01:25:15;1.40;;;0.68;;
47778;SDS011;33538;48.432;11.350;2023-04-24T01:27:42;13.35;;;0.80;;
47778;SDS011;33538;48.432;11.350;2023-04-24T01:30:09;0.50;;;0.50;;
47778;SDS011;33538;48.432;11.350;2023-04-24T01:32:36;0.85;;;0.60;;
47778;SDS011;33538;48.432;11.350;2023-04-24T01:35:04;0.95;;;0.55;;
47778;SDS011;33538;48.432;11.350;2023-04-24T01:37:32;0.60;;;0.55;;
47778;SDS011;33538;48.432;11.350;2023-04-24T01:40:01;1.08;;;0.60;;
47778;SDS011;33538;48.432;11.350;2023-04-24T01:42:27;0.90;;;0.60;;
47778;SDS011;33538;48.432;11.350;2023-04-24T01:44:55;2.05;;;0.63;;
47778;SDS011;33538;48.432;11.350;2023-04-24T01:47:22;0.40;;;0.40;;
47778;SDS011;33538;48.432;11.350;2023-04-24T01:49:50;0.40;;;0.40;;
47778;SDS011;33538;48.432;11.350;2023-04-24T01:52:17;0.70;;;0.70;;
47778;SDS011;33538;48.432;11.350;2023-04-24T01:54:44;0.60;;;0.50;;
47778;SDS011;33538;48.432;11.350;2023-04-24T01:57:12;0.88;;;0.50;;
47778;SDS011;33538;48.432;11.350;2023-04-24T01:59:39;0.70;;;0.50;;
47778;SDS011;33538;48.432;11.350;2023-04-24T02:02:08;0.80;;;0.75;;
47778;SDS011;33538;48.432;11.350;2023-04-24T02:04:34;0.60;;;0.40;;
47778;SDS011;33538;48.432;11.350;2023-04-24T02:07:01;0.40;;;0.32;;
47778;SDS011;33538;48.432;11.350;2023-04-24T02:09:28;0.65;;;0.63;;
47778;SDS011;33538;48.432;11.350;2023-04-24T02:11:55;0.75;;;0.65;;
47778;SDS011;33538;48.432;11.350;2023-04-24T02:14:23;0.57;;;0.57;;
47778;SDS011;33538;48.432;11.350;2023-04-24T02:16:49;0.73;;;0.50;;
47778;SDS011;33538;48.432;11.350;2023-04-24T02:19:16;0.43;;;0.40;;
47778;SDS011;33538;48.432;11.350;2023-04-24T02:21:43;1.40;;;0.65;;
47778;SDS011;33538;48.432;11.350;2023-04-24T02:24:09;0.52;;;0.40;;
47778;SDS011;33538;48.432;11.350;2023-04-24T02:26:36;0.73;;;0.55;;
47778;SDS011;33538;48.432;11.350;2023-04-24T02:29:03;0.45;;;0.40;;
47778;SDS011;33538;48.432;11.350;2023-04-24T02:31:31;0.52;;;0.50;;
47778;SDS011;33538;48.432;11.350;2023-04-24T02:33:58;0.55;;;0.50;;
47778;SDS011;33538;48.432;11.350;2023-04-24T02:36:25;2.17;;;0.47;;
47778;SDS011;33538;48.432;11.350;2023-04-24T02:38:51;1.42;;;0.75;;
47778;SDS011;33538;48.432;11.350;2023-04-24T02:41:18;0.63;;;0.40;;
47778;SDS011;33538;48.432;11.350;2023-04-24T02:43:45;0.30;;;0.30;;
47778;SDS011;33538;48.432;11.350;2023-04-24T02:46:12;0.50;;;0.40;;
47778;SDS011;33538;48.432;11.350;2023-04-24T02:48:40;0.82;;;0.30;;
47778;SDS011;33538;48.432;11.350;2023-04-24T02:51:06;0.68;;;0.50;;
47778;SDS011;33538;48.432;11.350;2023-04-24T02:53:33;0.63;;;0.52;;
47778;SDS011;33538;48.432;11.350;2023-04-24T02:56:00;1.25;;;0.60;;
47778;SDS011;33538;48.432;11.350;2023-04-24T02:58:27;0.40;;;0.40;;
47778;SDS011;33538;48.432;11.350;2023-04-24T03:00:53;0.90;;;0.57;;
47778;SDS011;33538;48.432;11.350;2023-04-24T03:03:20;1.75;;;0.57;;
47778;SDS011;33538;48.432;11.350;2023-04-24T03:05:49;0.60;;;0.40;;
47778;SDS011;33538;48.432;11.350;2023-04-24T03:08:16;0.60;;;0.38;;
47778;SDS011;33538;48.432;11.350;2023-04-24T03:10:42;1.23;;;0.65;;
47778;SDS011;33538;48.432;11.350;2023-04-24T03:13:12;0.57;;;0.40;;
47778;SDS011;33538;48.432;11.350;2023-04-24T03:15:39;1.80;;;0.60;;
47778;SDS011;33538;48.432;11.350;2023-04-24T03:18:06;0.40;;;0.40;;
47778;SDS011;33538;48.432;11.350;2023-04-24T03:20:32;0.50;;;0.40;;
47778;SDS011;33538;48.432;11.350;2023-04-24T03:23:00;0.50;;;0.50;;
47778;SDS011;33538;48.432;11.350;2023-04-24T03:25:27;1.25;;;0.60;;
47778;SDS011;33538;48.432;11.350;2023-04-24T03:27:54;1.25;;;0.60;;
47778;SDS011;33538;48.432;11.350;2023-04-24T03:30:21;0.55;;;0.50;;
47778;SDS011;33538;48.432;11.350;2023-04-24T03:32:47;0.40;;;0.40;;
47778;SDS011;33538;48.432;11.350;2023-04-24T03:35:14;1.05;;;0.68;;
47778;SDS011;33538;48.432;11.350;2023-04-24T03:37:41;1.17;;;0.63;;
47778;SDS011;33538;48.432;11.350;2023-04-24T03:40:09;0.73;;;0.73;;
47778;SDS011;33538;48.432;11.350;2023-04-24T03:42:36;0.60;;;0.40;;
47778;SDS011;33538;48.432;11.350;2023-04-24T03:45:05;0.45;;;0.45;;
47778;SDS011;33538;48.432;11.350;2023-04-24T03:47:32;0.60;;;0.60;;
47778;SDS011;33538;48.432;11.350;2023-04-24T03:49:59;2.53;;;0.55;;
47778;SDS011;33538;48.432;11.350;2023-04-24T03:52:26;1.50;;;0.68;;
47778;SDS011;33538;48.432;11.350;2023-04-24T03:54:53;0.95;;;0.60;;
47778;SDS011;33538;48.432;11.350;2023-04-24T03:57:21;0.73;;;0.65;;
47778;SDS011;33538;48.432;11.350;2023-04-24T03:59:47;0.73;;;0.50;;
47778;SDS011;33538;48.432;11.350;2023-04-24T04:02:14;1.13;;;0.80;;
47778;SDS011;33538;48.432;11.350;2023-04-24T04:04:41;0.95;;;0.68;;
47778;SDS011;33538;48.432;11.350;2023-04-24T04:07:08;0.80;;;0.60;;
47778;SDS011;33538;48.432;11.350;2023-04-24T04:09:35;1.38;;;0.80;;
47778;SDS011;33538;48.432;11.350;2023-04-24T04:12:02;0.80;;;0.40;;
47778;SDS011;33538;48.432;11.350;2023-04-24T04:14:30;0.75;;;0.65;;
47778;SDS011;33538;48.432;11.350;2023-04-24T04:16:57;0.60;;;0.50;;
47778;SDS011;33538;48.432;11.350;2023-04-24T04:19:23;0.60;;;0.60;;
47778;SDS011;33538;48.432;11.350;2023-04-24T04:21:50;0.57;;;0.57;;
47778;SDS011;33538;48.432;11.350;2023-04-24T04:24:17;0.98;;;0.70;;
47778;SDS011;33538;48.432;11.350;2023-04-24T04:26:43;0.75;;;0.60;;
47778;SDS011;33538;48.432;11.350;2023-04-24T04:29:10;0.85;;;0.50;;
47778;SDS011;33538;48.432;11.350;2023-04-24T04:31:38;0.50;;;0.50;;
47778;SDS011;33538;48.432;11.350;2023-04-24T04:34:05;0.90;;;0.80;;
47778;SDS011;33538;48.432;11.350;2023-04-24T04:36:32;0.70;;;0.57;;
47778;SDS011;33538;48.432;11.350;2023-04-24T04:38:59;1.17;;;0.60;;
47778;SDS011;33538;48.432;11.350;2023-04-24T04:41:26;0.60;;;0.60;;
47778;SDS011;33538;48.432;11.350;2023-04-24T04:43:52;0.75;;;0.60;;
47778;SDS011;33538;48.432;11.350;2023-04-24T04:46:19;0.63;;;0.50;;
47778;SDS011;33538;48.432;11.350;2023-04-24T04:48:47;0.60;;;0.40;;
47778;SDS011;33538;48.432;11.350;2023-04-24T04:51:14;1.38;;;0.52;;
47778;SDS011;33538;48.432;11.350;2023-04-24T04:53:41;0.80;;;0.80;;
47778;SDS011;33538;48.432;11.350;2023-04-24T04:56:07;0.40;;;0.40;;
47778;SDS011;33538;48.432;11.350;2023-04-24T04:58:34;0.63;;;0.57;;
47778;SDS011;33538;48.432;11.350;2023-04-24T05:01:01;2.35;;;0.55;;
47778;SDS011;33538;48.432;11.350;2023-04-24T05:03:28;1.45;;;0.60;;
47778;SDS011;33538;48.432;11.350;2023-04-24T05:05:56;1.35;;;0.52;;
47778;SDS011;33538;48.432;11.350;2023-04-24T05:08:23;0.88;;;0.55;;
47778;SDS011;33538;48.432;11.350;2023-04-24T05:10:53;0.90;;;0.60;;
47778;SDS011;33538;48.432;11.350;2023-04-24T05:13:20;1.05;;;0.73;;
47778;SDS011;33538;48.432;11.350;2023-04-24T05:16:04;0.50;;;0.50;;
47778;SDS011;33538;48.432;11.350;2023-04-24T05:18:30;0.93;;;0.65;;
47778;SDS011;33538;48.432;11.350;2023-04-24T05:20:58;0.60;;;0.60;;
47778;SDS011;33538;48.432;11.350;2023-04-24T05:23:25;1.60;;;0.70;;
47778;SDS011;33538;48.432;11.350;2023-04-24T05:25:52;0.50;;;0.50;;
47778;SDS011;33538;48.432;11.350;2023-04-24T05:28:19;0.70;;;0.40;;
47778;SDS011;33538;48.432;11.350;2023-04-24T05:30:45;0.60;;;0.60;;
47778;SDS011;33538;48.432;11.350;2023-04-24T05:33:12;0.77;;;0.77;;
47778;SDS011;33538;48.432;11.350;2023-04-24T05:35:39;0.70;;;0.50;;
47778;SDS011;33538;48.432;11.350;2023-04-24T05:38:07;1.13;;;0.60;;
47778;SDS011;33538;48.432;11.350;2023-04-24T05:40:34;0.75;;;0.52;;
47778;SDS011;33538;48.432;11.350;2023-04-24T05:43:01;0.43;;;0.43;;
47778;SDS011;33538;48.432;11.350;2023-04-24T05:45:28;0.60;;;0.50;;
47778;SDS011;33538;48.432;11.350;2023-04-24T05:47:54;2.30;;;0.55;;
47778;SDS011;33538;48.432;11.350;2023-04-24T05:50:21;1.10;;;0.70;;
47778;SDS011;33538;48.432;11.350;2023-04-24T05:52:48;1.08;;;0.77;;
47778;SDS011;33538;48.432;11.350;2023-04-24T05:55:16;1.85;;;0.68;;
47778;SDS011;33538;48.432;11.350;2023-04-24T05:57:43;1.00;;;0.57;;
47778;SDS011;33538;48.432;11.350;2023-04-24T06:00:10;0.65;;;0.65;;
47778;SDS011;33538;48.432;11.350;2023-04-24T06:02:38;1.05;;;0.52;;
47778;SDS011;33538;48.432;11.350;2023-04-24T06:05:05;1.73;;;0.63;;
47778;SDS011;33538;48.432;11.350;2023-04-24T06:07:32;0.38;;;0.38;;
47778;SDS011;33538;48.432;11.350;2023-04-24T06:09:59;0.30;;;0.30;;
47778;SDS011;33538;48.432;11.350;2023-04-24T06:12:27;1.95;;;0.60;;
47778;SDS011;33538;48.432;11.350;2023-04-24T06:14:54;0.82;;;0.43;;
47778;SDS011;33538;48.432;11.350;2023-04-24T06:17:20;1.25;;;0.57;;
47778;SDS011;33538;48.432;11.350;2023-04-24T06:19:47;0.40;;;0.40;;
47778;SDS011;33538;48.432;11.350;2023-04-24T06:22:14;0.50;;;0.38;;
47778;SDS011;33538;48.432;11.350;2023-04-24T06:24:41;0.65;;;0.40;;
47778;SDS011;33538;48.432;11.350;2023-04-24T06:27:08;0.82;;;0.43;;
47778;SDS011;33538;48.432;11.350;2023-04-24T06:29:36;0.90;;;0.50;;
47778;SDS011;33538;48.432;11.350;2023-04-24T06:32:03;0.40;;;0.40;;
47778;SDS011;33538;48.432;11.350;2023-04-24T06:34:29;0.82;;;0.50;;
47778;SDS011;33538;48.432;11.350;2023-04-24T06:36:56;0.50;;;0.50;;
47778;SDS011;33538;48.432;11.350;2023-04-24T06:39:23;0.30;;;0.30;;
47778;SDS011;33538;48.432;11.350;2023-04-24T06:41:50;1.42;;;0.32;;
47778;SDS011;33538;48.432;11.350;2023-04-24T06:44:16;3.83;;;0.50;;
47778;SDS011;33538;48.432;11.350;2023-04-24T06:46:44;1.42;;;0.60;;
47778;SDS011;33538;48.432;11.350;2023-04-24T06:49:11;0.50;;;0.50;;
47778;SDS011;33538;48.432;11.350;2023-04-24T06:51:38;2.58;;;0.60;;
47778;SDS011;33538;48.432;11.350;2023-04-24T06:54:05;0.30;;;0.30;;
47778;SDS011;33538;48.432;11.350;2023-04-24T06:56:32;0.38;;;0.22;;
47778;SDS011;33538;48.432;11.350;2023-04-24T06:58:58;0.45;;;0.40;;
47778;SDS011;33538;48.432;11.350;2023-04-24T07:01:25;0.20;;;0.20;;
47778;SDS011;33538;48.432;11.350;2023-04-24T07:03:53;0.45;;;0.32;;
47778;SDS011;33538;48.432;11.350;2023-04-24T07:06:20;0.73;;;0.38;;
47778;SDS011;33538;48.432;11.350;2023-04-24T07:08:47;0.82;;;0.32;;
47778;SDS011;33538;48.432;11.350;2023-04-24T07:11:14;0.30;;;0.30;;
47778;SDS011;33538;48.432;11.350;2023-04-24T07:13:41;0.38;;;0.35;;
47778;SDS011;33538;48.432;11.350;2023-04-24T07:16:08;0.70;;;0.60;;
47778;SDS011;33538;48.432;11.350;2023-04-24T07:18:35;0.38;;;0.32;;
47778;SDS011;33538;48.432;11.350;2023-04-24T07:21:03;0.30;;;0.30;;
47778;SDS011;33538;48.432;11.350;2023-04-24T07:23:29;0.82;;;0.30;;
47778;SDS011;33538;48.432;11.350;2023-04-24T07:25:56;0.85;;;0.40;;
47778;SDS011;33538;48.432;11.350;2023-04-24T07:28:23;1.20;;;0.55;;
47778;SDS011;33538;48.432;11.350;2023-04-24T07:30:50;0.65;;;0.40;;
47778;SDS011;33538;48.432;11.350;2023-04-24T07:33:16;0.93;;;0.43;;
47778;SDS011;33538;48.432;11.350;2023-04-24T07:35:43;0.43;;;0.30;;
47778;SDS011;33538;48.432;11.350;2023-04-24T07:38:11;0.95;;;0.30;;
47778;SDS011;33538;48.432;11.350;2023-04-24T07:40:38;0.45;;;0.40;;
47778;SDS011;33538;48.432;11.350;2023-04-24T07:43:05;1.98;;;0.60;;
47778;SDS011;33538;48.432;11.350;2023-04-24T07:45:31;0.30;;;0.30;;
47778;SDS011;33538;48.432;11.350;2023-04-24T07:47:58;1.38;;;0.32;;
47778;SDS011;33538;48.432;11.350;2023-04-24T07:50:25;0.32;;;0.30;;
47778;SDS011;33538;48.432;11.350;2023-04-24T07:52:52;0.30;;;0.20;;
47778;SDS011;33538;48.432;11.350;2023-04-24T07:55:20;0.43;;;0.40;;
47778;SDS011;33538;48.432;11.350;2023-04-24T07:57:51;1.40;;;0.40;;
47778;SDS011;33538;48.432;11.350;2023-04-24T08:00:17;0.28;;;0.28;;
47778;SDS011;33538;48.432;11.350;2023-04-24T08:02:45;0.90;;;0.43;;
47778;SDS011;33538;48.432;11.350;2023-04-24T08:05:12;0.40;;;0.40;;
47778;SDS011;33538;48.432;11.350;2023-04-24T08:07:39;0.40;;;0.40;;
47778;SDS011;33538;48.432;11.350;2023-04-24T08:10:06;0.45;;;0.40;;
47778;SDS011;33538;48.432;11.350;2023-04-24T08:12:35;0.70;;;0.50;;
47778;SDS011;33538;48.432;11.350;2023-04-24T08:15:01;0.52;;;0.52;;
47778;SDS011;33538;48.432;11.350;2023-04-24T08:17:29;2.50;;;0.60;;
47778;SDS011;33538;48.432;11.350;2023-04-24T08:19:58;0.80;;;0.63;;
47778;SDS011;33538;48.432;11.350;2023-04-24T08:22:24;0.98;;;0.70;;
47778;SDS011;33538;48.432;11.350;2023-04-24T08:24:51;1.15;;;0.60;;
47778;SDS011;33538;48.432;11.350;2023-04-24T08:27:18;0.60;;;0.60;;
47778;SDS011;33538;48.432;11.350;2023-04-24T08:29:46;0.88;;;0.88;;
47778;SDS011;33538;48.432;11.350;2023-04-24T08:32:13;1.08;;;0.77;;
47778;SDS011;33538;48.432;11.350;2023-04-24T08:34:39;1.13;;;0.80;;
47778;SDS011;33538;48.432;11.350;2023-04-24T08:37:06;2.05;;;1.10;;
47778;SDS011;33538;48.432;11.350;2023-04-24T08:39:33;1.73;;;0.70;;
47778;SDS011;33538;48.432;11.350;2023-04-24T08:42:00;4.15;;;0.80;;
47778;SDS011;33538;48.432;11.350;2023-04-24T08:44:27;1.23;;;0.50;;
47778;SDS011;33538;48.432;11.350;2023-04-24T08:46:55;0.60;;;0.60;;
47778;SDS011;33538;48.432;11.350;2023-04-24T08:49:23;2.83;;;0.70;;
47778;SDS011;33538;48.432;11.350;2023-04-24T08:51:51;0.90;;;0.60;;
47778;SDS011;33538;48.432;11.350;2023-04-24T08:54:18;1.95;;;0.85;;
47778;SDS011;33538;48.432;11.350;2023-04-24T08:56:47;0.95;;;0.85;;
47778;SDS011;33538;48.432;11.350;2023-04-24T08:59:15;1.92;;;0.98;;
47778;SDS011;33538;48.432;11.350;2023-04-24T09:01:42;1.25;;;1.00;;
47778;SDS011;33538;48.432;11.350;2023-04-24T09:04:12;0.70;;;0.70;;
47778;SDS011;33538;48.432;11.350;2023-04-24T09:06:41;1.33;;;0.93;;
47778;SDS011;33538;48.432;11.350;2023-04-24T09:09:08;0.93;;;0.57;;
47778;SDS011;33538;48.432;11.350;2023-04-24T09:11:37;0.80;;;0.70;;
47778;SDS011;33538;48.432;11.350;2023-04-24T09:14:03;0.80;;;0.60;;
47778;SDS011;33538;48.432;11.350;2023-04-24T09:16:30;0.75;;;0.63;;
47778;SDS011;33538;48.432;11.350;2023-04-24T09:19:01;0.80;;;0.70;;
47778;SDS011;33538;48.432;11.350;2023-04-24T09:21:32;1.52;;;0.60;;
47778;SDS011;33538;48.432;11.350;2023-04-24T09:24:00;1.00;;;0.63;;
47778;SDS011;33538;48.432;11.350;2023-04-24T09:26:29;0.60;;;0.60;;
47778;SDS011;33538;48.432;11.350;2023-04-24T09:28:56;1.25;;;0.80;;
47778;SDS011;33538;48.432;11.350;2023-04-24T09:31:22;1.00;;;0.75;;
47778;SDS011;33538;48.432;11.350;2023-04-24T09:33:53;0.90;;;0.80;;
47778;SDS011;33538;48.432;11.350;2023-04-24T09:36:26;2.10;;;0.98;;
47778;SDS011;33538;48.432;11.350;2023-04-24T09:38:58;1.58;;;0.90;;
47778;SDS011;33538;48.432;11.350;2023-04-24T09:41:26;1.30;;;0.90;;
47778;SDS011;33538;48.432;11.350;2023-04-24T09:43:53;1.48;;;1.00;;
47778;SDS011;33538;48.432;11.350;2023-04-24T09:46:20;1.50;;;1.08;;
47778;SDS011;33538;48.432;11.350;2023-04-24T09:48:54;3.28;;;1.13;;
47778;SDS011;33538;48.432;11.350;2023-04-24T09:51:23;0.80;;;0.70;;
47778;SDS011;33538;48.432;11.350;2023-04-24T09:54:02;3.03;;;1.27;;
47778;SDS011;33538;48.432;11.350;2023-04-24T09:56:31;3.63;;;1.10;;
47778;SDS011;33538;48.432;11.350;2023-04-24T09:59:03;1.13;;;1.05;;
47778;SDS011;33538;48.432;11.350;2023-04-24T10:01:31;2.53;;;0.90;;
47778;SDS011;33538;48.432;11.350;2023-04-24T10:03:58;0.70;;;0.70;;
47778;SDS011;33538;48.432;11.350;2023-04-24T10:06:29;1.00;;;0.90;;
47778;SDS011;33538;48.432;11.350;2023-04-24T10:08:57;2.33;;;1.40;;
47778;SDS011;33538;48.432;11.350;2023-04-24T10:11:26;2.65;;;1.10;;
47778;SDS011;33538;48.432;11.350;2023-04-24T10:13:53;1.25;;;0.95;;
47778;SDS011;33538;48.432;11.350;2023-04-24T10:16:20;2.33;;;1.20;;
47778;SDS011;33538;48.432;11.350;2023-04-24T10:18:48;1.67;;;1.25;;
47778;SDS011;33538;48.432;11.350;2023-04-24T10:21:15;1.75;;;1.27;;
47778;SDS011;33538;48.432;11.350;2023-04-24T10:23:43;1.80;;;1.10;;
47778;SDS011;33538;48.432;11.350;2023-04-24T10:26:10;1.73;;;1.23;;
47778;SDS011;33538;48.432;11.350;2023-04-24T10:28:40;1.83;;;1.20;;
47778;SDS011;33538;48.432;11.350;2023-04-24T10:31:08;1.38;;;1.15;;
47778;SDS011;33538;48.432;11.350;2023-04-24T10:33:36;1.83;;;1.20;;
47778;SDS011;33538;48.432;11.350;2023-04-24T10:36:04;2.30;;;1.08;;
47778;SDS011;33538;48.432;11.350;2023-04-24T10:38:32;3.67;;;1.50;;
47778;SDS011;33538;48.432;11.350;2023-04-24T10:41:06;2.72;;;1.35;;
47778;SDS011;33538;48.432;11.350;2023-04-24T10:43:34;1.65;;;1.20;;
47778;SDS011;33538;48.432;11.350;2023-04-24T10:46:03;1.45;;;1.17;;
47778;SDS011;33538;48.432;11.350;2023-04-24T10:48:31;2.40;;;1.10;;
47778;SDS011;33538;48.432;11.350;2023-04-24T10:50:59;1.42;;;0.82;;
47778;SDS011;33538;48.432;11.350;2023-04-24T10:53:27;1.10;;;1.00;;
47778;SDS011;33538;48.432;11.350;2023-04-24T10:55:57;0.73;;;0.73;;
47778;SDS011;33538;48.432;11.350;2023-04-24T10:58:36;0.88;;;0.70;;
47778;SDS011;33538;48.432;11.350;2023-04-24T11:01:06;1.70;;;0.95;;
47778;SDS011;33538;48.432;11.350;2023-04-24T11:03:34;2.78;;;0.68;;
47778;SDS011;33538;48.432;11.350;2023-04-24T11:06:02;0.85;;;0.70;;
47778;SDS011;33538;48.432;11.350;2023-04-24T11:08:31;1.27;;;0.82;;
47778;SDS011;33538;48.432;11.350;2023-04-24T11:11:03;0.98;;;0.77;;
47778;SDS011;33538;48.432;11.350;2023-04-24T11:16:31;0.80;;;0.80;;
47778;SDS011;33538;48.432;11.350;2023-04-24T11:19:03;1.65;;;1.02;;
47778;SDS011;33538;48.432;11.350;2023-04-24T11:21:31;0.80;;;0.80;;
47778;SDS011;33538;48.432;11.350;2023-04-24T11:23:58;1.55;;;1.00;;
47778;SDS011;33538;48.432;11.350;2023-04-24T11:26:45;0.88;;;0.70;;
47778;SDS011;33538;48.432;11.350;2023-04-24T11:29:12;1.10;;;0.90;;
47778;SDS011;33538;48.432;11.350;2023-04-24T11:31:40;3.08;;;1.23;;
47778;SDS011;33538;48.432;11.350;2023-04-24T11:34:11;1.25;;;1.00;;
47778;SDS011;33538;48.432;11.350;2023-04-24T11:36:39;1.17;;;1.05;;
47778;SDS011;33538;48.432;11.350;2023-04-24T11:39:08;1.48;;;0.85;;
47778;SDS011;33538;48.432;11.350;2023-04-24T11:41:35;2.45;;;1.40;;
47778;SDS011;33538;48.432;11.350;2023-04-24T11:44:02;1.27;;;1.17;;
47778;SDS011;33538;48.432;11.350;2023-04-24T11:46:31;1.60;;;0.98;;
47778;SDS011;33538;48.432;11.350;2023-04-24T11:49:00;1.65;;;1.30;;
47778;SDS011;33538;48.432;11.350;2023-04-24T11:51:27;1.08;;;0.98;;
47778;SDS011;33538;48.432;11.350;2023-04-24T11:54:02;1.67;;;1.00;;
47778;SDS011;33538;48.432;11.350;2023-04-24T11:56:33;3.15;;;1.27;;
47778;SDS011;33538;48.432;11.350;2023-04-24T11:59:00;2.17;;;1.20;;
47778;SDS011;33538;48.432;11.350;2023-04-24T12:01:41;2.03;;;1.20;;
47778;SDS011;33538;48.432;11.350;2023-04-24T12:04:10;3.72;;;1.38;;
47778;SDS011;33538;48.432;11.350;2023-04-24T12:06:38;1.63;;;1.17;;
47778;SDS011;33538;48.432;11.350;2023-04-24T12:09:04;1.42;;;1.13;;
47778;SDS011;33538;48.432;11.350;2023-04-24T12:11:52;1.15;;;0.98;;
47778;SDS011;33538;48.432;11.350;2023-04-24T12:14:19;4.28;;;1.50;;
47778;SDS011;33538;48.432;11.350;2023-04-24T12:16:47;1.45;;;1.20;;
47778;SDS011;33538;48.432;11.350;2023-04-24T12:19:18;1.67;;;0.90;;
47778;SDS011;33538;48.432;11.350;2023-04-24T12:21:58;4.30;;;1.00;;
47778;SDS011;33538;48.432;11.350;2023-04-24T12:24:25;1.42;;;0.95;;
47778;SDS011;33538;48.432;11.350;2023-04-24T12:26:52;1.05;;;0.95;;
47778;SDS011;33538;48.432;11.350;2023-04-24T12:29:19;1.20;;;0.90;;
47778;SDS011;33538;48.432;11.350;2023-04-24T12:31:46;2.83;;;1.20;;
47778;SDS011;33538;48.432;11.350;2023-04-24T12:34:18;0.73;;;0.73;;
47778;SDS011;33538;48.432;11.350;2023-04-24T12:36:45;1.30;;;1.00;;
47778;SDS011;33538;48.432;11.350;2023-04-24T12:39:15;3.40;;;0.85;;
47778;SDS011;33538;48.432;11.350;2023-04-24T12:41:50;1.42;;;1.02;;
47778;SDS011;33538;48.432;11.350;2023-04-24T12:44:20;1.50;;;0.68;;
47778;SDS011;33538;48.432;11.350;2023-04-24T12:46:55;0.90;;;0.60;;
47778;SDS011;33538;48.432;11.350;2023-04-24T12:49:23;1.15;;;1.00;;
47778;SDS011;33538;48.432;11.350;2023-04-24T12:51:50;3.30;;;1.00;;
47778;SDS011;33538;48.432;11.350;2023-04-24T12:54:16;2.17;;;0.70;;
47778;SDS011;33538;48.432;11.350;2023-04-24T12:56:43;1.00;;;0.90;;
47778;SDS011;33538;48.432;11.350;2023-04-24T12:59:10;1.08;;;0.85;;
47778;SDS011;33538;48.432;11.350;2023-04-24T13:01:37;3.17;;;0.80;;
47778;SDS011;33538;48.432;11.350;2023-04-24T13:04:04;0.85;;;0.80;;
47778;SDS011;33538;48.432;11.350;2023-04-24T13:06:32;1.08;;;0.70;;
47778;SDS011;33538;48.432;11.350;2023-04-24T13:08:59;1.55;;;1.30;;
47778;SDS011;33538;48.432;11.350;2023-04-24T13:11:26;0.90;;;0.90;;
47778;SDS011;33538;48.432;11.350;2023-04-24T13:13:53;1.38;;;1.10;;
47778;SDS011;33538;48.432;11.350;2023-04-24T13:16:20;1.17;;;0.75;;
47778;SDS011;33538;48.432;11.350;2023-04-24T13:18:47;2.03;;;1.15;;
47778;SDS011;33538;48.432;11.350;2023-04-24T13:21:14;1.05;;;0.82;;
47778;SDS011;33538;48.432;11.350;2023-04-24T13:23:42;1.30;;;0.98;;
47778;SDS011;33538;48.432;11.350;2023-04-24T13:26:09;1.52;;;1.10;;
47778;SDS011;33538;48.432;11.350;2023-04-24T13:28:36;1.55;;;1.00;;
47778;SDS011;33538;48.432;11.350;2023-04-24T13:31:02;1.10;;;0.88;;
47778;SDS011;33538;48.432;11.350;2023-04-24T13:33:29;1.15;;;0.93;;
47778;SDS011;33538;48.432;11.350;2023-04-24T13:35:56;2.15;;;0.85;;
47778;SDS011;33538;48.432;11.350;2023-04-24T13:38:23;1.17;;;0.95;;
47778;SDS011;33538;48.432;11.350;2023-04-24T13:40:51;1.67;;;1.17;;
47778;SDS011;33538;48.432;11.350;2023-04-24T13:43:18;2.95;;;1.00;;
47778;SDS011;33538;48.432;11.350;2023-04-24T13:45:45;0.85;;;0.68;;
47778;SDS011;33538;48.432;11.350;2023-04-24T13:48:11;2.90;;;1.00;;
47778;SDS011;33538;48.432;11.350;2023-04-24T13:50:38;0.90;;;0.80;;
47778;SDS011;33538;48.432;11.350;2023-04-24T13:53:05;1.85;;;0.95;;
47778;SDS011;33538;48.432;11.350;2023-04-24T13:55:32;1.45;;;0.90;;
47778;SDS011;33538;48.432;11.350;2023-04-24T13:58:00;3.08;;;0.95;;
47778;SDS011;33538;48.432;11.350;2023-04-24T14:00:27;0.63;;;0.63;;
47778;SDS011;33538;48.432;11.350;2023-04-24T14:02:53;2.08;;;1.13;;
47778;SDS011;33538;48.432;11.350;2023-04-24T14:05:21;1.25;;;0.90;;
47778;SDS011;33538;48.432;11.350;2023-04-24T14:07:47;1.20;;;1.00;;
47778;SDS011;33538;48.432;11.350;2023-04-24T14:10:14;1.48;;;0.82;;
47778;SDS011;33538;48.432;11.350;2023-04-24T14:12:41;1.33;;;0.90;;
47778;SDS011;33538;48.432;11.350;2023-04-24T14:15:09;2.83;;;1.05;;
47778;SDS011;33538;48.432;11.350;2023-04-24T14:17:37;2.88;;;0.85;;
47778;SDS011;33538;48.432;11.350;2023-04-24T14:20:04;0.80;;;0.80;;
47778;SDS011;33538;48.432;11.350;2023-04-24T14:22:31;3.25;;;0.90;;
47778;SDS011;33538;48.432;11.350;2023-04-24T14:24:58;0.93;;;0.82;;
47778;SDS011;33538;48.432;11.350;2023-04-24T14:27:25;0.70;;;0.70;;
47778;SDS011;33538;48.432;11.350;2023-04-24T14:29:52;1.40;;;1.00;;
47778;SDS011;33538;48.432;11.350;2023-04-24T14:32:20;1.20;;;0.90;;
47778;SDS011;33538;48.432;11.350;2023-04-24T14:34:47;0.85;;;0.73;;
47778;SDS011;33538;48.432;11.350;2023-04-24T14:37:13;1.05;;;0.70;;
47778;SDS011;33538;48.432;11.350;2023-04-24T14:39:40;1.15;;;0.90;;